CYVV

Wiarton Airport

Wiarton, , Canada
METAR CYVV 180200Z 12004KT 15SM OVC040 M07/M12 A3007 RMK SC8 SLP200
Observed Flight Rules
Dec-18 @ 02:00 UTC (an hour ago) Visual Flight Rules
Wind Visibility Clouds
120° at 4 knots 15 miles
  • Overcast at 4,000' AGL
Temperatures Readings
Current -7°C / 19°F
Dewpoint -12°C / 10°F
Humidity 68%
Altimeter 30.07" Hg
Pressure 1020 hPa
Elevation 222
METAR CYVV 180200Z 12004KT 15SM OVC040 M07/M12 A3007 RMK SC8 SLP200
Observed Flight Rules
Dec-18 @ 02:00 UTC
(an hour ago)
VFR
Wind Visibility
120° at 4 knots 15 miles
Clouds
  • Overcast at 4,000' AGL
Temperature Dewpoint
-7°C / 19°F -12°C / 10°F
Humidity Altimeter Pressure
68% 30.07" Hg 1020 hPa